Tuesday, January 22, 2019, 4:00 PM EST
Back to Local

KBOS, Boston Logan International

Location: Boston, MA, United States Lat: 42.367
Local Time: 4:00 PM EST (21:00 GMT) Lon: -71.017
Time Zone: US/Eastern Elev: 19 ft

Show me the last for .
Show Decoded

2019-01-22 14:54 METAR KBOS 221954Z 30012KT 10SM FEW130 SCT250 M02/M21 A3051 RMK AO2 SLP330
                 T10221206 $ =
2019-01-22 13:54 METAR KBOS 221854Z 30012KT 10SM FEW130 FEW250 M03/M21 A3050 RMK AO2 SLP328
                 T10331206 $ =
2019-01-22 12:54 METAR KBOS 221754Z 30013G21KT 10SM FEW250 M04/M22 A3049 RMK AO2 SLP325 T10441217
                 11044 21128 58001 $ =
2019-01-22 11:54 METAR KBOS 221654Z 29016G22KT 10SM FEW250 M06/M22 A3050 RMK AO2 PK WND
                 33026/1641 SLP327 T10561217 =
2019-01-22 10:54 METAR KBOS 221554Z 31016G30KT 10SM CLR M07/M22 A3051 RMK AO2 PK WND 31030/1550
                 SLP332 T10721217 =
2019-01-22 09:54 METAR KBOS 221454Z 29017G25KT 10SM CLR M09/M22 A3050 RMK AO2 SLP325 T10891217
                 51030 =
2019-01-22 08:54 METAR KBOS 221354Z 29015KT 10SM CLR M11/M22 A3048 RMK AO2 SLP320 T11111222 =
2019-01-22 07:54 METAR KBOS 221254Z 28014KT 10SM FEW040 M12/M22 A3046 RMK AO2 SLP313 T11221222 =
2019-01-22 06:54 METAR KBOS 221154Z 28015KT 10SM FEW040 M13/M23 A3041 RMK AO2 SLP295 T11281228
                 11122 21133 51054 =
2019-01-22 05:54 METAR KBOS 221054Z 29014G24KT 10SM FEW250 M13/M23 A3036 RMK AO2 PK WND
                 28029/1004 SLP280 T11281233 =
2019-01-22 04:54 METAR KBOS 220954Z 29019G29KT 10SM FEW250 M13/M23 A3031 RMK AO2 PK WND
                 29029/0913 PRESRR SLP263 T11281233 =
2019-01-22 03:54 METAR KBOS 220854Z 29017G27KT 10SM CLR M13/M24 A3025 RMK AO2 PK WND 29031/0836
                 SLP242 T11281239 51030 =
2019-01-22 02:54 METAR KBOS 220754Z 30014G24KT 10SM CLR M13/M23 A3022 RMK AO2 PK WND 29026/0656
                 SLP233 T11281233 =
2019-01-22 01:54 METAR KBOS 220654Z 30019G27KT 10SM FEW035 FEW220 M13/M24 A3019 RMK AO2 PK WND
                 29032/0618 SLP223 T11331239 =
2019-01-22 00:54 METAR KBOS 220554Z 30016G24KT 10SM FEW035 FEW220 M13/M24 A3016 RMK AO2 PK WND
                 27029/0531 SLP211 60000 T11331239 11133 21144 51023 =
2019-01-21 23:54 METAR KBOS 220454Z 29017G30KT 10SM FEW035 SCT060 SCT220 M13/M23 A3015 RMK AO2 PK
                 WND 29031/0431 SLP208 SNE37 P0000 T11331233 411221150 =
2019-01-21 22:54 METAR KBOS 220354Z 29018G27KT 9SM -SN BKN037 OVC220 M13/M22 A3012 RMK AO2 PK WND
                 29031/0333 SLP198 P0000 T11331222 =
2019-01-21 21:54 METAR KBOS 220254Z 30018G23KT 4SM -SN FEW021 BKN055 OVC200 M14/M21 A3009 RMK AO2
                 PK WND 32030/0239 SLP188 P0000 60000 T11391211 51036 =
2019-01-21 21:06 METAR KBOS 220206Z 30012G22KT 3SM -SN FEW021 BKN048 BKN085 OVC200 M14/M20 A3006
                 RMK AO2 P0000 T11391200 =
2019-01-21 20:54 METAR KBOS 220154Z 30015G22KT 2 1/2SM -SN FEW020 OVC042 M14/M19 A3006 RMK AO2 PK
                 WND 32030/0121 SLP178 P0000 T11391194 =
2019-01-21 19:54 METAR KBOS 220054Z 31017G26KT 2 1/2SM -SN FEW018 OVC038 M14/M19 A3002 RMK AO2 PK
                 WND 33026/0046 SLP165 P0000 T11391194 =
2019-01-21 19:35 METAR KBOS 220035Z 30016G26KT 2 1/2SM -SN FEW018 OVC042 M14/M19 A3001 RMK AO2 PK
                 WND 32026/0028 P0000 T11441194 =
2019-01-21 18:54 METAR KBOS 212354Z 31017G27KT 4SM -SN FEW021 OVC039 M14/M20 A2998 RMK AO2 PK WND
                 32028/2337 SLP152 P0000 60000 T11441200 11133 21144 53039 =
2019-01-21 17:54 METAR KBOS 212254Z 29019G26KT 2SM -SN FEW019 OVC032 M14/M21 A2994 RMK AO2 PK WND
                 29028/2217 SLP138 P0000 T11441206 =
2019-01-21 17:40 METAR KBOS 212240Z 30015G26KT 2 1/2SM -SN FEW019 OVC033 M14/M21 A2993 RMK AO2 PK
                 WND 29028/2217 P0000 T11441206 =
2019-01-21 16:54 METAR KBOS 212154Z 30019G27KT 4SM -SN FEW022 BKN038 OVC090 M14/M22 A2990 RMK AO2
                 PK WND 32028/2057 SNB35 SLP125 PCPN VRY LGT P0000 T11441217 =

Support USWX by starting your Amazon purchase here.